sensor_id;sensor_type;location;lat;lon;timestamp;P1;durP1;ratioP1;P2;durP2;ratioP2
7375;SDS011;3728;42.266;24.944;2023-03-01T00:01:42;1.60;;;1.50;;
7375;SDS011;3728;42.266;24.944;2023-03-01T00:04:10;1.50;;;1.40;;
7375;SDS011;3728;42.266;24.944;2023-03-01T00:06:37;1.90;;;1.47;;
7375;SDS011;3728;42.266;24.944;2023-03-01T00:09:05;1.93;;;1.73;;
7375;SDS011;3728;42.266;24.944;2023-03-01T00:11:32;1.40;;;1.30;;
7375;SDS011;3728;42.266;24.944;2023-03-01T00:14:01;1.47;;;1.13;;
7375;SDS011;3728;42.266;24.944;2023-03-01T00:16:32;1.27;;;1.17;;
7375;SDS011;3728;42.266;24.944;2023-03-01T00:19:06;1.30;;;1.20;;
7375;SDS011;3728;42.266;24.944;2023-03-01T00:21:40;1.00;;;1.00;;
7375;SDS011;3728;42.266;24.944;2023-03-01T00:24:08;1.33;;;1.23;;
7375;SDS011;3728;42.266;24.944;2023-03-01T00:26:36;5.43;;;3.27;;
7375;SDS011;3728;42.266;24.944;2023-03-01T00:29:04;5.43;;;3.83;;
7375;SDS011;3728;42.266;24.944;2023-03-01T00:31:36;1.60;;;1.50;;
7375;SDS011;3728;42.266;24.944;2023-03-01T00:34:04;2.60;;;1.20;;
7375;SDS011;3728;42.266;24.944;2023-03-01T00:36:33;1.07;;;1.07;;
7375;SDS011;3728;42.266;24.944;2023-03-01T00:39:04;1.23;;;1.07;;
7375;SDS011;3728;42.266;24.944;2023-03-01T00:41:40;1.13;;;1.03;;
7375;SDS011;3728;42.266;24.944;2023-03-01T00:44:08;1.37;;;1.10;;
7375;SDS011;3728;42.266;24.944;2023-03-01T00:46:36;1.27;;;1.17;;
7375;SDS011;3728;42.266;24.944;2023-03-01T00:49:04;1.00;;;0.90;;
7375;SDS011;3728;42.266;24.944;2023-03-01T00:51:32;1.33;;;1.23;;
7375;SDS011;3728;42.266;24.944;2023-03-01T00:54:01;1.33;;;1.27;;
7375;SDS011;3728;42.266;24.944;2023-03-01T00:56:29;1.17;;;1.17;;
7375;SDS011;3728;42.266;24.944;2023-03-01T00:58:58;1.20;;;1.10;;
7375;SDS011;3728;42.266;24.944;2023-03-01T01:01:27;0.97;;;0.97;;
7375;SDS011;3728;42.266;24.944;2023-03-01T01:03:58;1.40;;;1.20;;
7375;SDS011;3728;42.266;24.944;2023-03-01T01:06:31;1.20;;;1.20;;
7375;SDS011;3728;42.266;24.944;2023-03-01T01:09:03;1.43;;;1.33;;
7375;SDS011;3728;42.266;24.944;2023-03-01T01:11:33;1.43;;;1.33;;
7375;SDS011;3728;42.266;24.944;2023-03-01T01:14:02;1.10;;;1.10;;
7375;SDS011;3728;42.266;24.944;2023-03-01T01:16:31;1.00;;;1.00;;
7375;SDS011;3728;42.266;24.944;2023-03-01T01:19:00;1.20;;;1.07;;
7375;SDS011;3728;42.266;24.944;2023-03-01T01:21:27;1.77;;;1.60;;
7375;SDS011;3728;42.266;24.944;2023-03-01T01:23:56;1.30;;;1.20;;
7375;SDS011;3728;42.266;24.944;2023-03-01T01:26:25;1.10;;;1.10;;
7375;SDS011;3728;42.266;24.944;2023-03-01T01:28:55;1.67;;;1.20;;
7375;SDS011;3728;42.266;24.944;2023-03-01T01:31:24;1.20;;;1.10;;
7375;SDS011;3728;42.266;24.944;2023-03-01T01:33:53;1.37;;;1.10;;
7375;SDS011;3728;42.266;24.944;2023-03-01T01:36:23;1.00;;;1.00;;
7375;SDS011;3728;42.266;24.944;2023-03-01T01:38:51;1.30;;;1.10;;
7375;SDS011;3728;42.266;24.944;2023-03-01T01:41:19;1.60;;;1.07;;
7375;SDS011;3728;42.266;24.944;2023-03-01T01:43:49;1.00;;;1.00;;
7375;SDS011;3728;42.266;24.944;2023-03-01T01:49:37;1.00;;;1.00;;
7375;SDS011;3728;42.266;24.944;2023-03-01T01:52:18;0.83;;;0.83;;
7375;SDS011;3728;42.266;24.944;2023-03-01T01:55:19;1.10;;;1.10;;
7375;SDS011;3728;42.266;24.944;2023-03-01T01:57:51;1.10;;;0.90;;
7375;SDS011;3728;42.266;24.944;2023-03-01T02:00:26;0.77;;;0.77;;
7375;SDS011;3728;42.266;24.944;2023-03-01T02:02:59;2.33;;;1.03;;
7375;SDS011;3728;42.266;24.944;2023-03-01T02:08:39;1.27;;;0.90;;
7375;SDS011;3728;42.266;24.944;2023-03-01T02:11:09;0.90;;;0.90;;
7375;SDS011;3728;42.266;24.944;2023-03-01T02:13:39;0.70;;;0.70;;
7375;SDS011;3728;42.266;24.944;2023-03-01T02:16:13;1.60;;;1.00;;
7375;SDS011;3728;42.266;24.944;2023-03-01T02:18:42;0.80;;;0.80;;
7375;SDS011;3728;42.266;24.944;2023-03-01T02:23:50;0.80;;;0.80;;
7375;SDS011;3728;42.266;24.944;2023-03-01T02:26:37;0.70;;;0.70;;
7375;SDS011;3728;42.266;24.944;2023-03-01T02:29:13;0.90;;;0.90;;
7375;SDS011;3728;42.266;24.944;2023-03-01T02:31:41;1.00;;;1.00;;
7375;SDS011;3728;42.266;24.944;2023-03-01T02:34:12;1.07;;;0.80;;
7375;SDS011;3728;42.266;24.944;2023-03-01T02:36:53;0.70;;;0.70;;
7375;SDS011;3728;42.266;24.944;2023-03-01T02:39:28;0.90;;;0.90;;
7375;SDS011;3728;42.266;24.944;2023-03-01T02:42:12;1.13;;;0.80;;
7375;SDS011;3728;42.266;24.944;2023-03-01T02:44:46;0.80;;;0.80;;
7375;SDS011;3728;42.266;24.944;2023-03-01T02:47:15;1.83;;;1.03;;
7375;SDS011;3728;42.266;24.944;2023-03-01T02:49:42;0.80;;;0.80;;
7375;SDS011;3728;42.266;24.944;2023-03-01T02:57:40;1.00;;;0.90;;
7375;SDS011;3728;42.266;24.944;2023-03-01T03:00:12;1.10;;;1.00;;
7375;SDS011;3728;42.266;24.944;2023-03-01T03:02:47;1.07;;;0.90;;
7375;SDS011;3728;42.266;24.944;2023-03-01T03:05:26;0.90;;;0.90;;
7375;SDS011;3728;42.266;24.944;2023-03-01T03:07:57;0.70;;;0.70;;
7375;SDS011;3728;42.266;24.944;2023-03-01T03:10:31;1.10;;;1.00;;
7375;SDS011;3728;42.266;24.944;2023-03-01T03:13:10;1.57;;;0.80;;
7375;SDS011;3728;42.266;24.944;2023-03-01T03:15:42;1.07;;;0.97;;
7375;SDS011;3728;42.266;24.944;2023-03-01T03:18:11;0.83;;;0.80;;
7375;SDS011;3728;42.266;24.944;2023-03-01T03:20:42;0.80;;;0.80;;
7375;SDS011;3728;42.266;24.944;2023-03-01T03:23:13;0.90;;;0.90;;
7375;SDS011;3728;42.266;24.944;2023-03-01T03:25:41;0.80;;;0.80;;
7375;SDS011;3728;42.266;24.944;2023-03-01T03:28:08;0.90;;;0.90;;
7375;SDS011;3728;42.266;24.944;2023-03-01T03:30:37;0.90;;;0.90;;
7375;SDS011;3728;42.266;24.944;2023-03-01T03:33:08;0.90;;;0.90;;
7375;SDS011;3728;42.266;24.944;2023-03-01T03:35:48;0.73;;;0.73;;
7375;SDS011;3728;42.266;24.944;2023-03-01T03:38:17;0.70;;;0.70;;
7375;SDS011;3728;42.266;24.944;2023-03-01T03:40:52;0.60;;;0.60;;
7375;SDS011;3728;42.266;24.944;2023-03-01T03:43:30;1.00;;;1.00;;
7375;SDS011;3728;42.266;24.944;2023-03-01T03:46:01;0.90;;;0.90;;
7375;SDS011;3728;42.266;24.944;2023-03-01T03:48:33;0.90;;;0.90;;
7375;SDS011;3728;42.266;24.944;2023-03-01T03:51:03;0.80;;;0.80;;
7375;SDS011;3728;42.266;24.944;2023-03-01T03:53:34;0.80;;;0.80;;
7375;SDS011;3728;42.266;24.944;2023-03-01T03:56:02;1.70;;;0.93;;
7375;SDS011;3728;42.266;24.944;2023-03-01T03:58:32;0.83;;;0.80;;
7375;SDS011;3728;42.266;24.944;2023-03-01T04:01:00;0.97;;;0.97;;
7375;SDS011;3728;42.266;24.944;2023-03-01T04:03:28;0.80;;;0.80;;
7375;SDS011;3728;42.266;24.944;2023-03-01T04:05:58;0.77;;;0.77;;
7375;SDS011;3728;42.266;24.944;2023-03-01T04:08:27;1.60;;;0.93;;
7375;SDS011;3728;42.266;24.944;2023-03-01T04:11:02;0.90;;;0.90;;
7375;SDS011;3728;42.266;24.944;2023-03-01T04:13:50;1.07;;;0.97;;
7375;SDS011;3728;42.266;24.944;2023-03-01T04:16:23;1.03;;;1.03;;
7375;SDS011;3728;42.266;24.944;2023-03-01T04:18:54;0.90;;;0.90;;
7375;SDS011;3728;42.266;24.944;2023-03-01T04:21:22;0.73;;;0.73;;
7375;SDS011;3728;42.266;24.944;2023-03-01T04:23:51;1.00;;;1.00;;
7375;SDS011;3728;42.266;24.944;2023-03-01T04:26:19;1.10;;;0.97;;
7375;SDS011;3728;42.266;24.944;2023-03-01T04:28:47;2.40;;;1.10;;
7375;SDS011;3728;42.266;24.944;2023-03-01T04:31:17;0.80;;;0.80;;
7375;SDS011;3728;42.266;24.944;2023-03-01T04:33:50;1.00;;;1.00;;
7375;SDS011;3728;42.266;24.944;2023-03-01T04:36:24;1.10;;;1.00;;
7375;SDS011;3728;42.266;24.944;2023-03-01T04:38:55;0.77;;;0.77;;
7375;SDS011;3728;42.266;24.944;2023-03-01T04:41:24;1.27;;;0.80;;
7375;SDS011;3728;42.266;24.944;2023-03-01T04:43:54;1.10;;;0.97;;
7375;SDS011;3728;42.266;24.944;2023-03-01T04:46:22;1.10;;;1.10;;
7375;SDS011;3728;42.266;24.944;2023-03-01T04:48:50;0.80;;;0.80;;
7375;SDS011;3728;42.266;24.944;2023-03-01T04:51:17;1.83;;;1.00;;
7375;SDS011;3728;42.266;24.944;2023-03-01T04:53:45;0.77;;;0.77;;
7375;SDS011;3728;42.266;24.944;2023-03-01T04:56:13;0.90;;;0.90;;
7375;SDS011;3728;42.266;24.944;2023-03-01T04:58:42;1.00;;;1.00;;
7375;SDS011;3728;42.266;24.944;2023-03-01T05:01:17;0.90;;;0.90;;
7375;SDS011;3728;42.266;24.944;2023-03-01T05:03:50;1.23;;;1.20;;
7375;SDS011;3728;42.266;24.944;2023-03-01T05:06:19;1.20;;;1.20;;
7375;SDS011;3728;42.266;24.944;2023-03-01T05:08:47;1.40;;;1.30;;
7375;SDS011;3728;42.266;24.944;2023-03-01T05:11:15;1.17;;;1.07;;
7375;SDS011;3728;42.266;24.944;2023-03-01T05:13:42;1.00;;;1.00;;
7375;SDS011;3728;42.266;24.944;2023-03-01T05:16:10;1.20;;;1.10;;
7375;SDS011;3728;42.266;24.944;2023-03-01T05:18:39;2.23;;;1.40;;
7375;SDS011;3728;42.266;24.944;2023-03-01T05:21:08;1.53;;;1.43;;
7375;SDS011;3728;42.266;24.944;2023-03-01T05:23:44;4.20;;;2.23;;
7375;SDS011;3728;42.266;24.944;2023-03-01T05:26:13;5.13;;;2.27;;
7375;SDS011;3728;42.266;24.944;2023-03-01T05:28:59;1.83;;;1.70;;
7375;SDS011;3728;42.266;24.944;2023-03-01T05:31:27;2.90;;;1.70;;
7375;SDS011;3728;42.266;24.944;2023-03-01T05:33:57;2.30;;;2.10;;
7375;SDS011;3728;42.266;24.944;2023-03-01T05:36:24;1.80;;;1.70;;
7375;SDS011;3728;42.266;24.944;2023-03-01T05:38:52;2.60;;;2.30;;
7375;SDS011;3728;42.266;24.944;2023-03-01T05:41:19;4.57;;;2.60;;
7375;SDS011;3728;42.266;24.944;2023-03-01T05:43:47;3.30;;;2.63;;
7375;SDS011;3728;42.266;24.944;2023-03-01T05:46:14;4.00;;;3.30;;
7375;SDS011;3728;42.266;24.944;2023-03-01T05:48:42;2.77;;;2.50;;
7375;SDS011;3728;42.266;24.944;2023-03-01T05:51:10;1.90;;;1.80;;
7375;SDS011;3728;42.266;24.944;2023-03-01T05:53:38;1.60;;;1.50;;
7375;SDS011;3728;42.266;24.944;2023-03-01T05:56:06;1.63;;;1.53;;
7375;SDS011;3728;42.266;24.944;2023-03-01T05:58:34;1.23;;;1.20;;
7375;SDS011;3728;42.266;24.944;2023-03-01T06:01:01;0.90;;;0.90;;
7375;SDS011;3728;42.266;24.944;2023-03-01T06:03:29;1.87;;;1.20;;
7375;SDS011;3728;42.266;24.944;2023-03-01T06:05:57;1.57;;;1.30;;
7375;SDS011;3728;42.266;24.944;2023-03-01T06:08:25;3.50;;;1.40;;
7375;SDS011;3728;42.266;24.944;2023-03-01T06:10:53;1.10;;;1.10;;
7375;SDS011;3728;42.266;24.944;2023-03-01T06:13:21;1.50;;;1.00;;
7375;SDS011;3728;42.266;24.944;2023-03-01T06:15:50;1.43;;;1.23;;
7375;SDS011;3728;42.266;24.944;2023-03-01T06:18:18;1.00;;;1.00;;
7375;SDS011;3728;42.266;24.944;2023-03-01T06:20:51;3.60;;;1.70;;
7375;SDS011;3728;42.266;24.944;2023-03-01T06:23:20;1.23;;;1.20;;
7375;SDS011;3728;42.266;24.944;2023-03-01T06:25:49;1.10;;;1.10;;
7375;SDS011;3728;42.266;24.944;2023-03-01T06:28:16;1.93;;;1.03;;
7375;SDS011;3728;42.266;24.944;2023-03-01T06:30:44;1.47;;;1.30;;
7375;SDS011;3728;42.266;24.944;2023-03-01T06:33:12;1.70;;;1.60;;
7375;SDS011;3728;42.266;24.944;2023-03-01T06:35:40;1.80;;;1.13;;
7375;SDS011;3728;42.266;24.944;2023-03-01T06:38:07;2.00;;;1.73;;
7375;SDS011;3728;42.266;24.944;2023-03-01T06:40:35;1.63;;;1.47;;
7375;SDS011;3728;42.266;24.944;2023-03-01T06:43:02;1.77;;;1.67;;
7375;SDS011;3728;42.266;24.944;2023-03-01T06:45:30;2.67;;;1.67;;
7375;SDS011;3728;42.266;24.944;2023-03-01T06:48:02;1.47;;;1.37;;
7375;SDS011;3728;42.266;24.944;2023-03-01T06:50:32;1.80;;;1.40;;
7375;SDS011;3728;42.266;24.944;2023-03-01T06:53:01;1.73;;;1.63;;
7375;SDS011;3728;42.266;24.944;2023-03-01T06:55:29;1.60;;;1.50;;
7375;SDS011;3728;42.266;24.944;2023-03-01T06:57:57;2.00;;;1.90;;
7375;SDS011;3728;42.266;24.944;2023-03-01T07:00:30;1.80;;;1.70;;
7375;SDS011;3728;42.266;24.944;2023-03-01T07:02:59;2.40;;;2.20;;
7375;SDS011;3728;42.266;24.944;2023-03-01T07:05:28;2.70;;;2.50;;
7375;SDS011;3728;42.266;24.944;2023-03-01T07:07:57;2.23;;;2.10;;
7375;SDS011;3728;42.266;24.944;2023-03-01T07:10:24;2.20;;;2.07;;
7375;SDS011;3728;42.266;24.944;2023-03-01T07:12:58;2.63;;;2.20;;
7375;SDS011;3728;42.266;24.944;2023-03-01T07:15:26;2.03;;;1.93;;
7375;SDS011;3728;42.266;24.944;2023-03-01T07:17:55;2.77;;;2.30;;
7375;SDS011;3728;42.266;24.944;2023-03-01T07:20:23;2.23;;;1.93;;
7375;SDS011;3728;42.266;24.944;2023-03-01T07:22:55;1.97;;;1.50;;
7375;SDS011;3728;42.266;24.944;2023-03-01T07:25:25;1.97;;;1.83;;
7375;SDS011;3728;42.266;24.944;2023-03-01T07:27:52;1.70;;;1.60;;
7375;SDS011;3728;42.266;24.944;2023-03-01T07:30:21;1.80;;;1.70;;
7375;SDS011;3728;42.266;24.944;2023-03-01T07:32:52;2.27;;;2.00;;
7375;SDS011;3728;42.266;24.944;2023-03-01T07:35:22;2.27;;;2.10;;
7375;SDS011;3728;42.266;24.944;2023-03-01T07:37:53;1.73;;;1.63;;
7375;SDS011;3728;42.266;24.944;2023-03-01T07:40:21;1.83;;;1.67;;
7375;SDS011;3728;42.266;24.944;2023-03-01T07:42:48;2.03;;;1.87;;
7375;SDS011;3728;42.266;24.944;2023-03-01T07:45:15;2.30;;;2.10;;
7375;SDS011;3728;42.266;24.944;2023-03-01T07:47:43;2.20;;;2.10;;
7375;SDS011;3728;42.266;24.944;2023-03-01T07:50:10;2.10;;;2.00;;
7375;SDS011;3728;42.266;24.944;2023-03-01T07:52:39;2.00;;;1.90;;
7375;SDS011;3728;42.266;24.944;2023-03-01T07:55:07;2.10;;;1.60;;
7375;SDS011;3728;42.266;24.944;2023-03-01T07:57:35;2.17;;;1.87;;
7375;SDS011;3728;42.266;24.944;2023-03-01T08:00:03;3.33;;;1.70;;
7375;SDS011;3728;42.266;24.944;2023-03-01T08:02:37;4.27;;;2.27;;
7375;SDS011;3728;42.266;24.944;2023-03-01T08:05:06;2.87;;;1.80;;
7375;SDS011;3728;42.266;24.944;2023-03-01T08:07:36;2.20;;;2.10;;
7375;SDS011;3728;42.266;24.944;2023-03-01T08:10:04;2.37;;;2.03;;
7375;SDS011;3728;42.266;24.944;2023-03-01T08:12:32;2.90;;;2.30;;
7375;SDS011;3728;42.266;24.944;2023-03-01T08:14:59;3.87;;;2.43;;
7375;SDS011;3728;42.266;24.944;2023-03-01T08:17:27;1.80;;;1.67;;
7375;SDS011;3728;42.266;24.944;2023-03-01T08:19:54;2.93;;;1.80;;
7375;SDS011;3728;42.266;24.944;2023-03-01T08:22:22;2.50;;;2.13;;
7375;SDS011;3728;42.266;24.944;2023-03-01T08:24:50;2.87;;;2.50;;
7375;SDS011;3728;42.266;24.944;2023-03-01T08:27:17;2.10;;;2.00;;
7375;SDS011;3728;42.266;24.944;2023-03-01T08:29:45;2.63;;;2.00;;
7375;SDS011;3728;42.266;24.944;2023-03-01T08:32:12;1.67;;;1.57;;
7375;SDS011;3728;42.266;24.944;2023-03-01T08:34:41;2.07;;;1.70;;
7375;SDS011;3728;42.266;24.944;2023-03-01T08:37:09;1.93;;;1.83;;
7375;SDS011;3728;42.266;24.944;2023-03-01T08:39:36;2.33;;;2.13;;
7375;SDS011;3728;42.266;24.944;2023-03-01T08:42:04;1.87;;;1.77;;
7375;SDS011;3728;42.266;24.944;2023-03-01T08:44:31;3.13;;;1.80;;
7375;SDS011;3728;42.266;24.944;2023-03-01T08:47:00;3.67;;;2.40;;
7375;SDS011;3728;42.266;24.944;2023-03-01T08:49:28;2.30;;;2.17;;
7375;SDS011;3728;42.266;24.944;2023-03-01T08:51:56;2.90;;;2.13;;
7375;SDS011;3728;42.266;24.944;2023-03-01T08:54:23;2.13;;;1.70;;
7375;SDS011;3728;42.266;24.944;2023-03-01T08:56:51;2.70;;;1.80;;
7375;SDS011;3728;42.266;24.944;2023-03-01T08:59:18;2.20;;;1.90;;
7375;SDS011;3728;42.266;24.944;2023-03-01T09:01:46;1.80;;;1.70;;
7375;SDS011;3728;42.266;24.944;2023-03-01T09:04:14;3.57;;;1.67;;
7375;SDS011;3728;42.266;24.944;2023-03-01T09:06:42;1.90;;;1.80;;
7375;SDS011;3728;42.266;24.944;2023-03-01T09:09:12;3.00;;;1.57;;
7375;SDS011;3728;42.266;24.944;2023-03-01T09:11:45;1.87;;;1.30;;
7375;SDS011;3728;42.266;24.944;2023-03-01T09:14:16;2.47;;;1.77;;
7375;SDS011;3728;42.266;24.944;2023-03-01T09:16:43;1.73;;;1.60;;
7375;SDS011;3728;42.266;24.944;2023-03-01T09:19:11;1.83;;;1.70;;
7375;SDS011;3728;42.266;24.944;2023-03-01T09:21:39;1.50;;;1.40;;
7375;SDS011;3728;42.266;24.944;2023-03-01T09:24:12;1.57;;;1.47;;
7375;SDS011;3728;42.266;24.944;2023-03-01T09:26:41;3.00;;;1.50;;
7375;SDS011;3728;42.266;24.944;2023-03-01T09:29:14;2.40;;;1.30;;
7375;SDS011;3728;42.266;24.944;2023-03-01T09:31:44;1.73;;;1.50;;
7375;SDS011;3728;42.266;24.944;2023-03-01T09:34:11;2.00;;;1.70;;
7375;SDS011;3728;42.266;24.944;2023-03-01T09:36:42;1.50;;;1.40;;
7375;SDS011;3728;42.266;24.944;2023-03-01T09:39:09;3.50;;;2.00;;
7375;SDS011;3728;42.266;24.944;2023-03-01T09:44:36;1.63;;;1.50;;
7375;SDS011;3728;42.266;24.944;2023-03-01T09:47:27;1.70;;;1.60;;
7375;SDS011;3728;42.266;24.944;2023-03-01T09:52:47;1.27;;;1.17;;
7375;SDS011;3728;42.266;24.944;2023-03-01T10:10:26;3.03;;;1.90;;
7375;SDS011;3728;42.266;24.944;2023-03-01T10:12:57;3.50;;;2.30;;
7375;SDS011;3728;42.266;24.944;2023-03-01T10:15:39;1.93;;;1.83;;
7375;SDS011;3728;42.266;24.944;2023-03-01T10:18:22;3.00;;;1.70;;
7375;SDS011;3728;42.266;24.944;2023-03-01T10:21:09;3.67;;;2.60;;
7375;SDS011;3728;42.266;24.944;2023-03-01T10:23:42;3.60;;;2.70;;
7375;SDS011;3728;42.266;24.944;2023-03-01T10:29:09;3.63;;;2.43;;
7375;SDS011;3728;42.266;24.944;2023-03-01T10:31:49;2.47;;;2.20;;
7375;SDS011;3728;42.266;24.944;2023-03-01T10:34:29;1.73;;;1.63;;
7375;SDS011;3728;42.266;24.944;2023-03-01T10:37:04;1.87;;;1.60;;
7375;SDS011;3728;42.266;24.944;2023-03-01T10:40:03;4.37;;;1.70;;
7375;SDS011;3728;42.266;24.944;2023-03-01T10:42:45;2.20;;;1.73;;
7375;SDS011;3728;42.266;24.944;2023-03-01T10:48:05;2.50;;;1.77;;
7375;SDS011;3728;42.266;24.944;2023-03-01T10:51:05;3.47;;;2.10;;
7375;SDS011;3728;42.266;24.944;2023-03-01T10:53:38;4.00;;;2.47;;
7375;SDS011;3728;42.266;24.944;2023-03-01T10:56:10;2.47;;;1.80;;
7375;SDS011;3728;42.266;24.944;2023-03-01T11:01:32;2.47;;;1.37;;
7375;SDS011;3728;42.266;24.944;2023-03-01T11:06:41;2.63;;;1.77;;
7375;SDS011;3728;42.266;24.944;2023-03-01T11:11:52;1.60;;;1.50;;
7375;SDS011;3728;42.266;24.944;2023-03-01T11:17:00;2.97;;;1.67;;
7375;SDS011;3728;42.266;24.944;2023-03-01T11:19:59;2.80;;;1.73;;
7375;SDS011;3728;42.266;24.944;2023-03-01T11:22:29;1.80;;;1.70;;
7375;SDS011;3728;42.266;24.944;2023-03-01T11:25:00;3.00;;;1.60;;
7375;SDS011;3728;42.266;24.944;2023-03-01T11:27:43;1.97;;;1.80;;
7375;SDS011;3728;42.266;24.944;2023-03-01T11:30:21;4.47;;;2.10;;
7375;SDS011;3728;42.266;24.944;2023-03-01T11:36:06;2.93;;;2.20;;
7375;SDS011;3728;42.266;24.944;2023-03-01T11:38:47;2.63;;;2.30;;
7375;SDS011;3728;42.266;24.944;2023-03-01T11:41:16;2.93;;;2.30;;
7375;SDS011;3728;42.266;24.944;2023-03-01T11:55:30;2.13;;;1.70;;
7375;SDS011;3728;42.266;24.944;2023-03-01T11:58:41;1.83;;;1.60;;
7375;SDS011;3728;42.266;24.944;2023-03-01T12:04:59;2.97;;;2.33;;
7375;SDS011;3728;42.266;24.944;2023-03-01T12:10:23;1.90;;;1.80;;
7375;SDS011;3728;42.266;24.944;2023-03-01T12:22:40;2.80;;;1.87;;
7375;SDS011;3728;42.266;24.944;2023-03-01T12:25:38;1.77;;;1.40;;
7375;SDS011;3728;42.266;24.944;2023-03-01T12:28:35;2.33;;;1.67;;
7375;SDS011;3728;42.266;24.944;2023-03-01T12:31:44;2.73;;;2.17;;
7375;SDS011;3728;42.266;24.944;2023-03-01T12:37:31;2.40;;;2.17;;
7375;SDS011;3728;42.266;24.944;2023-03-01T12:52:07;2.30;;;2.10;;
7375;SDS011;3728;42.266;24.944;2023-03-01T12:54:46;3.67;;;2.07;;
7375;SDS011;3728;42.266;24.944;2023-03-01T13:09:16;2.53;;;2.30;;
7375;SDS011;3728;42.266;24.944;2023-03-01T13:12:01;2.33;;;2.13;;
7375;SDS011;3728;42.266;24.944;2023-03-01T13:14:41;5.13;;;2.60;;
7375;SDS011;3728;42.266;24.944;2023-03-01T13:17:32;2.57;;;2.33;;
7375;SDS011;3728;42.266;24.944;2023-03-01T13:20:11;2.33;;;1.97;;
7375;SDS011;3728;42.266;24.944;2023-03-01T13:22:42;2.93;;;2.00;;
7375;SDS011;3728;42.266;24.944;2023-03-01T13:25:20;1.90;;;1.80;;
7375;SDS011;3728;42.266;24.944;2023-03-01T13:31:54;2.10;;;1.90;;
7375;SDS011;3728;42.266;24.944;2023-03-01T13:39:05;3.00;;;1.93;;
7375;SDS011;3728;42.266;24.944;2023-03-01T13:42:01;2.07;;;1.87;;
7375;SDS011;3728;42.266;24.944;2023-03-01T13:44:31;2.63;;;2.43;;
7375;SDS011;3728;42.266;24.944;2023-03-01T13:49:43;2.77;;;1.93;;
7375;SDS011;3728;42.266;24.944;2023-03-01T13:55:00;2.47;;;2.00;;
7375;SDS011;3728;42.266;24.944;2023-03-01T13:57:41;3.43;;;2.00;;
7375;SDS011;3728;42.266;24.944;2023-03-01T14:03:08;2.40;;;1.90;;
7375;SDS011;3728;42.266;24.944;2023-03-01T14:08:44;2.07;;;1.87;;
7375;SDS011;3728;42.266;24.944;2023-03-01T14:19:59;3.37;;;2.27;;
7375;SDS011;3728;42.266;24.944;2023-03-01T14:22:58;2.93;;;1.97;;
7375;SDS011;3728;42.266;24.944;2023-03-01T14:25:32;2.53;;;1.93;;
7375;SDS011;3728;42.266;24.944;2023-03-01T14:31:25;3.37;;;2.10;;
7375;SDS011;3728;42.266;24.944;2023-03-01T14:34:20;2.27;;;1.80;;
7375;SDS011;3728;42.266;24.944;2023-03-01T14:36:52;2.20;;;2.00;;
7375;SDS011;3728;42.266;24.944;2023-03-01T14:39:28;2.57;;;2.37;;
7375;SDS011;3728;42.266;24.944;2023-03-01T14:42:00;4.83;;;2.73;;
7375;SDS011;3728;42.266;24.944;2023-03-01T14:44:42;2.57;;;2.37;;
7375;SDS011;3728;42.266;24.944;2023-03-01T14:47:15;3.80;;;2.80;;
7375;SDS011;3728;42.266;24.944;2023-03-01T14:53:01;4.60;;;2.87;;
7375;SDS011;3728;42.266;24.944;2023-03-01T14:55:38;2.70;;;2.20;;
7375;SDS011;3728;42.266;24.944;2023-03-01T14:58:23;1.70;;;1.60;;
7375;SDS011;3728;42.266;24.944;2023-03-01T15:00:56;2.40;;;1.90;;
7375;SDS011;3728;42.266;24.944;2023-03-01T15:03:37;2.73;;;2.47;;
7375;SDS011;3728;42.266;24.944;2023-03-01T15:06:11;3.23;;;2.53;;
7375;SDS011;3728;42.266;24.944;2023-03-01T15:08:48;2.93;;;2.53;;
7375;SDS011;3728;42.266;24.944;2023-03-01T15:11:20;4.43;;;3.20;;
7375;SDS011;3728;42.266;24.944;2023-03-01T15:13:51;5.50;;;2.67;;
7375;SDS011;3728;42.266;24.944;2023-03-01T15:16:22;3.57;;;2.97;;
7375;SDS011;3728;42.266;24.944;2023-03-01T15:19:00;3.00;;;2.70;;
7375;SDS011;3728;42.266;24.944;2023-03-01T15:21:35;4.17;;;2.90;;
7375;SDS011;3728;42.266;24.944;2023-03-01T15:24:20;2.63;;;2.43;;
7375;SDS011;3728;42.266;24.944;2023-03-01T15:27:00;2.63;;;2.30;;
7375;SDS011;3728;42.266;24.944;2023-03-01T15:29:39;3.13;;;2.83;;
7375;SDS011;3728;42.266;24.944;2023-03-01T15:32:29;4.27;;;3.57;;
7375;SDS011;3728;42.266;24.944;2023-03-01T15:41:46;4.90;;;4.07;;
7375;SDS011;3728;42.266;24.944;2023-03-01T15:44:24;5.23;;;4.13;;
7375;SDS011;3728;42.266;24.944;2023-03-01T15:47:46;5.43;;;4.27;;
7375;SDS011;3728;42.266;24.944;2023-03-01T15:50:05;4.90;;;4.23;;
7375;SDS011;3728;42.266;24.944;2023-03-01T15:52:47;5.20;;;4.30;;
7375;SDS011;3728;42.266;24.944;2023-03-01T15:55:18;6.20;;;4.43;;
7375;SDS011;3728;42.266;24.944;2023-03-01T15:58:04;4.23;;;3.83;;
7375;SDS011;3728;42.266;24.944;2023-03-01T16:00:51;5.77;;;4.50;;
7375;SDS011;3728;42.266;24.944;2023-03-01T16:03:28;4.37;;;3.97;;
7375;SDS011;3728;42.266;24.944;2023-03-01T16:06:01;6.07;;;4.30;;
7375;SDS011;3728;42.266;24.944;2023-03-01T16:08:29;4.60;;;4.03;;
7375;SDS011;3728;42.266;24.944;2023-03-01T16:11:05;4.30;;;3.63;;
7375;SDS011;3728;42.266;24.944;2023-03-01T16:14:14;4.90;;;4.40;;
7375;SDS011;3728;42.266;24.944;2023-03-01T16:16:45;5.50;;;4.90;;
7375;SDS011;3728;42.266;24.944;2023-03-01T16:19:18;6.03;;;4.63;;
7375;SDS011;3728;42.266;24.944;2023-03-01T16:21:49;5.63;;;4.73;;
7375;SDS011;3728;42.266;24.944;2023-03-01T16:24:30;8.17;;;5.63;;
7375;SDS011;3728;42.266;24.944;2023-03-01T16:26:57;6.00;;;5.40;;
7375;SDS011;3728;42.266;24.944;2023-03-01T16:29:25;6.27;;;4.80;;
7375;SDS011;3728;42.266;24.944;2023-03-01T16:31:53;5.67;;;5.07;;
7375;SDS011;3728;42.266;24.944;2023-03-01T16:34:21;7.30;;;5.43;;
7375;SDS011;3728;42.266;24.944;2023-03-01T16:36:49;7.03;;;4.77;;
7375;SDS011;3728;42.266;24.944;2023-03-01T16:39:17;5.30;;;4.80;;
7375;SDS011;3728;42.266;24.944;2023-03-01T16:41:45;6.13;;;4.50;;
7375;SDS011;3728;42.266;24.944;2023-03-01T16:44:14;17.40;;;10.47;;
7375;SDS011;3728;42.266;24.944;2023-03-01T16:46:43;7.63;;;6.20;;
7375;SDS011;3728;42.266;24.944;2023-03-01T16:49:12;18.30;;;9.20;;
7375;SDS011;3728;42.266;24.944;2023-03-01T16:51:41;13.37;;;8.53;;
7375;SDS011;3728;42.266;24.944;2023-03-01T16:54:10;6.50;;;5.07;;
7375;SDS011;3728;42.266;24.944;2023-03-01T16:56:37;7.67;;;4.83;;
7375;SDS011;3728;42.266;24.944;2023-03-01T16:59:06;5.57;;;4.90;;
7375;SDS011;3728;42.266;24.944;2023-03-01T17:01:34;4.33;;;3.93;;
7375;SDS011;3728;42.266;24.944;2023-03-01T17:04:10;7.13;;;4.70;;
7375;SDS011;3728;42.266;24.944;2023-03-01T17:06:39;8.23;;;5.60;;
7375;SDS011;3728;42.266;24.944;2023-03-01T17:09:09;5.03;;;4.03;;
7375;SDS011;3728;42.266;24.944;2023-03-01T17:11:37;4.27;;;3.87;;
7375;SDS011;3728;42.266;24.944;2023-03-01T17:14:05;5.00;;;4.50;;
7375;SDS011;3728;42.266;24.944;2023-03-01T17:16:34;6.80;;;4.70;;
7375;SDS011;3728;42.266;24.944;2023-03-01T17:19:02;5.33;;;4.67;;
7375;SDS011;3728;42.266;24.944;2023-03-01T17:21:31;5.17;;;4.67;;
7375;SDS011;3728;42.266;24.944;2023-03-01T17:23:59;4.90;;;4.20;;
7375;SDS011;3728;42.266;24.944;2023-03-01T17:26:29;5.13;;;4.30;;
7375;SDS011;3728;42.266;24.944;2023-03-01T17:28:59;5.93;;;4.60;;
7375;SDS011;3728;42.266;24.944;2023-03-01T17:31:33;5.10;;;4.27;;
7375;SDS011;3728;42.266;24.944;2023-03-01T17:34:02;5.47;;;4.47;;
7375;SDS011;3728;42.266;24.944;2023-03-01T17:36:32;5.60;;;4.40;;
7375;SDS011;3728;42.266;24.944;2023-03-01T17:39:07;10.13;;;6.93;;
7375;SDS011;3728;42.266;24.944;2023-03-01T17:41:35;7.13;;;5.93;;
7375;SDS011;3728;42.266;24.944;2023-03-01T17:44:05;9.93;;;7.70;;
7375;SDS011;3728;42.266;24.944;2023-03-01T17:46:38;6.17;;;5.00;;
7375;SDS011;3728;42.266;24.944;2023-03-01T17:49:06;8.47;;;5.70;;
7375;SDS011;3728;42.266;24.944;2023-03-01T17:51:38;6.37;;;5.37;;
7375;SDS011;3728;42.266;24.944;2023-03-01T17:54:07;5.80;;;5.27;;
7375;SDS011;3728;42.266;24.944;2023-03-01T17:56:35;5.07;;;4.50;;
7375;SDS011;3728;42.266;24.944;2023-03-01T17:59:04;6.00;;;5.07;;
7375;SDS011;3728;42.266;24.944;2023-03-01T18:01:32;7.10;;;4.73;;
7375;SDS011;3728;42.266;24.944;2023-03-01T18:04:05;10.87;;;8.37;;